New Braintree, Massachusetts
Current Conditions -  °F | °C
As of 2:54 PM on Wednesday 17 Dec 2014 (Local Time) from KORH Reporting Station
Broken Clouds Broken Clouds  
Wind Chill: 35°   Ceiling: 1700
Heat Index: 43°   Visibility: 10mi
Dew Point: 39°   Wind: 16mph
Humidity: 86%   Direction: 300°WNW
Pressure: 29.7"   Gusts: NA
Location:  42.3°N, 72.21°W
Report Text: KORH 171954Z 30014KT 10SM BKN017 BKN022 06/04 A2970 RMK AO2 SLP065 T00610039
Loading
Personal Weather Stations






























Interactive Weather Map New forecast layout! Learn more

10-Day Weather Forecast

Advertisements
Track Severe Weather on mobile